createdAt,value
2022-09-01T00:02:19.508Z,0.80
2022-09-01T00:04:47.372Z,0.90
2022-09-01T00:07:14.240Z,0.95
2022-09-01T00:09:41.003Z,0.90
2022-09-01T00:12:09.021Z,0.77
2022-09-01T00:14:40.972Z,0.90
2022-09-01T00:17:09.455Z,0.85
2022-09-01T00:19:36.395Z,0.70
2022-09-01T00:22:03.453Z,0.60
2022-09-01T00:24:29.955Z,1.10
2022-09-01T00:26:56.733Z,0.85
2022-09-01T00:29:24.886Z,0.90
2022-09-01T00:31:51.513Z,0.80
2022-09-01T00:34:17.929Z,1.10
2022-09-01T00:36:44.546Z,0.52
2022-09-01T00:39:12.166Z,0.60
2022-09-01T00:41:39.625Z,0.68
2022-09-01T00:44:08.218Z,0.50
2022-09-01T00:46:37.403Z,0.52
2022-09-01T00:49:16.047Z,0.68
2022-09-01T00:51:44.256Z,0.60
2022-09-01T00:54:13.401Z,0.82
2022-09-01T00:56:40.874Z,0.75
2022-09-01T00:59:13.387Z,0.82
2022-09-01T01:01:40.215Z,0.60
2022-09-01T01:04:14.892Z,0.75
2022-09-01T01:06:49.675Z,1.30
2022-09-01T01:09:20.216Z,0.52
2022-09-01T01:11:47.564Z,0.55
2022-09-01T01:14:17.284Z,0.80
2022-09-01T01:16:45.238Z,0.68
2022-09-01T01:19:39.114Z,0.80
2022-09-01T01:22:26.858Z,0.73
2022-09-01T01:24:53.520Z,0.90
2022-09-01T01:27:21.949Z,1.15
2022-09-01T01:29:50.239Z,0.70
2022-09-01T01:32:16.601Z,0.60
2022-09-01T01:34:46.885Z,0.60
2022-09-01T01:37:15.250Z,0.70
2022-09-01T01:39:43.861Z,0.80
2022-09-01T01:42:10.945Z,0.80
2022-09-01T01:44:38.274Z,0.70
2022-09-01T01:47:09.730Z,0.52
2022-09-01T01:49:36.865Z,0.65
2022-09-01T01:52:04.630Z,0.57
2022-09-01T01:54:34.739Z,0.70
2022-09-01T01:57:02.109Z,0.80
2022-09-01T01:59:29.619Z,1.02
2022-09-01T02:01:56.216Z,0.70
2022-09-01T02:04:22.593Z,0.70
2022-09-01T02:06:49.308Z,0.60
2022-09-01T02:09:17.987Z,0.70
2022-09-01T02:11:45.544Z,0.85
2022-09-01T02:14:13.490Z,0.70
2022-09-01T02:16:40.751Z,0.60
2022-09-01T02:19:09.984Z,0.63
2022-09-01T02:21:37.925Z,0.80
2022-09-01T02:24:08.431Z,0.70
2022-09-01T02:26:38.629Z,0.73
2022-09-01T02:29:09.192Z,0.70
2022-09-01T02:31:40.391Z,0.55
2022-09-01T02:34:10.737Z,1.00
2022-09-01T02:36:47.484Z,0.73
2022-09-01T02:39:23.993Z,0.80
2022-09-01T02:41:50.500Z,0.80
2022-09-01T02:44:22.200Z,0.90
2022-09-01T02:46:50.188Z,1.13
2022-09-01T02:49:24.786Z,1.17
2022-09-01T02:51:54.101Z,0.57
2022-09-01T02:54:24.594Z,0.88
2022-09-01T02:56:54.672Z,0.60
2022-09-01T02:59:24.661Z,0.60
2022-09-01T03:01:51.953Z,0.85
2022-09-01T03:04:19.869Z,1.00
2022-09-01T03:06:46.818Z,0.88
2022-09-01T03:09:15.823Z,0.90
2022-09-01T03:11:43.405Z,0.70
2022-09-01T03:14:10.009Z,0.82
2022-09-01T03:16:37.292Z,0.85
2022-09-01T03:19:07.402Z,0.73
2022-09-01T03:21:34.149Z,0.90
2022-09-01T03:24:03.649Z,1.05
2022-09-01T03:26:30.731Z,0.85
2022-09-01T03:28:57.163Z,0.70
2022-09-01T03:31:27.392Z,0.95
2022-09-01T03:33:59.649Z,1.00
2022-09-01T03:36:33.413Z,0.90
2022-09-01T03:39:00.548Z,1.20
2022-09-01T03:41:30.845Z,0.90
2022-09-01T03:44:00.227Z,0.98
2022-09-01T03:46:36.883Z,1.00
2022-09-01T03:49:07.483Z,1.10
2022-09-01T03:51:39.106Z,0.90
2022-09-01T03:54:06.857Z,1.15
2022-09-01T03:56:33.972Z,0.85
2022-09-01T03:59:00.520Z,1.00
2022-09-01T04:01:27.837Z,0.88
2022-09-01T04:03:55.554Z,1.30
2022-09-01T04:06:30.892Z,1.10
2022-09-01T04:09:03.091Z,1.10
2022-09-01T04:11:32.358Z,1.02
2022-09-01T04:13:59.118Z,1.10
2022-09-01T04:16:45.512Z,1.20
2022-09-01T04:19:20.625Z,1.17
2022-09-01T04:21:50.194Z,1.00
2022-09-01T04:24:18.906Z,1.90
2022-09-01T04:26:48.843Z,1.30
2022-09-01T04:29:18.654Z,1.15
2022-09-01T04:31:45.702Z,1.20
2022-09-01T04:34:13.811Z,1.40
2022-09-01T04:36:43.845Z,1.52
2022-09-01T04:39:12.399Z,1.55
2022-09-01T04:41:46.138Z,1.02
2022-09-01T04:44:15.763Z,1.60
2022-09-01T04:46:46.326Z,1.60
2022-09-01T04:49:19.286Z,1.40
2022-09-01T04:51:51.302Z,1.83
2022-09-01T04:54:20.870Z,1.50
2022-09-01T04:56:51.306Z,1.85
2022-09-01T04:59:20.393Z,1.42
2022-09-01T05:01:54.276Z,1.30
2022-09-01T05:04:27.448Z,1.50
2022-09-01T05:07:00.919Z,1.55
2022-09-01T05:09:40.777Z,1.50
2022-09-01T05:12:15.691Z,2.05
2022-09-01T05:14:48.829Z,1.77
2022-09-01T05:17:18.954Z,1.83
2022-09-01T05:19:51.233Z,1.70
2022-09-01T05:22:22.288Z,2.20
2022-09-01T05:25:12.063Z,1.88
2022-09-01T05:27:41.951Z,1.73
2022-09-01T05:30:08.666Z,1.60
2022-09-01T05:32:37.299Z,1.70
2022-09-01T05:35:08.309Z,1.23
2022-09-01T05:37:37.391Z,1.35
2022-09-01T05:40:06.731Z,1.52
2022-09-01T05:42:33.934Z,1.50
2022-09-01T05:45:02.062Z,1.52
2022-09-01T05:47:28.894Z,1.50
2022-09-01T05:49:56.045Z,1.65
2022-09-01T05:52:26.291Z,1.40
2022-09-01T05:54:53.668Z,1.40
2022-09-01T05:57:33.793Z,1.60
2022-09-01T06:00:02.204Z,1.10
2022-09-01T06:02:29.328Z,1.30
2022-09-01T06:04:57.471Z,1.40
2022-09-01T06:07:29.276Z,1.17
2022-09-01T06:09:59.986Z,1.38
2022-09-01T06:12:28.065Z,1.40
2022-09-01T06:14:55.021Z,1.60
2022-09-01T06:17:24.963Z,1.67
2022-09-01T06:19:53.421Z,1.38
2022-09-01T06:22:20.698Z,1.40
2022-09-01T06:24:52.723Z,1.42
2022-09-01T06:27:22.336Z,1.30
2022-09-01T06:29:55.318Z,1.17
2022-09-01T06:32:25.756Z,1.98
2022-09-01T06:34:52.846Z,1.23
2022-09-01T06:37:22.905Z,1.00
2022-09-01T06:39:53.003Z,1.50
2022-09-01T06:42:20.053Z,1.20
2022-09-01T06:44:52.654Z,1.10
2022-09-01T06:47:19.629Z,1.00
2022-09-01T06:49:46.053Z,1.45
2022-09-01T06:52:23.628Z,1.15
2022-09-01T06:54:54.981Z,1.00
2022-09-01T07:00:18.875Z,1.05
2022-09-01T07:02:47.887Z,0.70
2022-09-01T07:14:23.929Z,0.70
2022-09-01T07:16:53.253Z,1.35
2022-09-01T07:19:55.871Z,1.25
2022-09-01T07:23:03.593Z,0.98
2022-09-01T07:25:12.909Z,0.60
2022-09-01T07:27:54.658Z,0.70
2022-09-01T07:30:27.300Z,0.60
2022-09-01T07:32:55.681Z,0.52
2022-09-01T07:35:24.167Z,0.63
2022-09-01T07:43:55.586Z,0.90
2022-09-01T07:46:41.024Z,1.00
2022-09-01T07:51:59.629Z,0.70
2022-09-01T07:54:27.810Z,0.70
2022-09-01T07:56:55.774Z,1.05
2022-09-01T07:59:23.430Z,0.90
2022-09-01T08:01:57.397Z,1.08
2022-09-01T08:04:23.926Z,0.70
2022-09-01T08:06:50.791Z,0.80
2022-09-01T08:09:25.369Z,1.00
2022-09-01T08:12:05.055Z,0.85
2022-09-01T08:14:37.099Z,0.60
2022-09-01T08:19:50.950Z,0.85
2022-09-01T08:22:32.812Z,0.80
2022-09-01T08:25:06.220Z,0.93
2022-09-01T08:27:33.417Z,0.60
2022-09-01T08:30:00.349Z,0.63
2022-09-01T08:32:27.780Z,0.60
2022-09-01T08:34:54.455Z,0.60
2022-09-01T08:37:21.543Z,0.70
2022-09-01T08:39:49.470Z,0.73
2022-09-01T08:42:25.757Z,0.52
2022-09-01T08:45:10.884Z,0.60
2022-09-01T08:47:55.893Z,0.70
2022-09-01T08:50:25.504Z,0.65
2022-09-01T08:53:20.540Z,0.88
2022-09-01T08:55:49.647Z,0.77
2022-09-01T08:58:17.973Z,0.70
2022-09-01T09:00:58.722Z,1.10
2022-09-01T09:03:42.337Z,0.60
2022-09-01T09:06:15.151Z,0.60
2022-09-01T09:08:47.557Z,0.60
2022-09-01T09:11:23.775Z,0.70
2022-09-01T09:14:11.667Z,0.68
2022-09-01T09:16:40.967Z,0.73
2022-09-01T09:19:11.001Z,0.70
2022-09-01T09:21:39.248Z,0.65
2022-09-01T09:24:29.020Z,0.90
2022-09-01T09:27:04.497Z,0.70
2022-09-01T09:29:33.511Z,0.80
2022-09-01T09:32:05.839Z,0.75
2022-09-01T09:34:34.635Z,0.60
2022-09-01T09:37:15.604Z,0.50
2022-09-01T09:39:41.976Z,0.70
2022-09-01T09:42:10.792Z,0.60
2022-09-01T09:44:45.219Z,0.70
2022-09-01T09:47:43.046Z,0.60
2022-09-01T09:50:22.961Z,0.63
2022-09-01T09:52:50.691Z,0.60
2022-09-01T09:55:25.352Z,0.70
2022-09-01T09:57:54.481Z,0.82
2022-09-01T10:00:24.478Z,0.60
2022-09-01T10:03:12.607Z,0.77
2022-09-01T10:05:39.122Z,0.70
2022-09-01T10:08:10.707Z,0.80
2022-09-01T10:10:40.404Z,0.60
2022-09-01T10:13:18.054Z,0.63
2022-09-01T10:15:51.626Z,0.50
2022-09-01T10:18:28.439Z,0.55
2022-09-01T10:21:00.551Z,0.40
2022-09-01T10:23:31.017Z,0.63
2022-09-01T10:26:00.911Z,0.70
2022-09-01T10:28:31.138Z,0.65
2022-09-01T10:30:59.102Z,0.65
2022-09-01T10:33:25.617Z,0.80
2022-09-01T10:35:53.228Z,0.52
2022-09-01T10:38:24.273Z,0.50
2022-09-01T10:41:14.309Z,0.65
2022-09-01T10:43:45.607Z,0.60
2022-09-01T10:46:15.705Z,0.47
2022-09-01T10:48:52.048Z,0.68
2022-09-01T10:51:28.334Z,0.38
2022-09-01T10:54:03.955Z,0.50
2022-09-01T10:56:44.346Z,0.50
2022-09-01T10:59:33.771Z,0.60
2022-09-01T11:02:26.289Z,0.50
2022-09-01T11:05:00.396Z,0.70
2022-09-01T11:07:57.957Z,0.57
2022-09-01T11:10:32.792Z,0.70
2022-09-01T11:13:15.001Z,0.50
2022-09-01T11:15:44.815Z,0.45
2022-09-01T11:18:23.492Z,0.60
2022-09-01T11:20:50.966Z,0.50
2022-09-01T11:23:20.564Z,0.50
2022-09-01T11:28:41.603Z,0.30
2022-09-01T11:31:11.357Z,0.52
2022-09-01T11:33:56.435Z,0.40
2022-09-01T11:36:36.700Z,0.70
2022-09-01T11:39:26.876Z,0.50
2022-09-01T11:41:57.429Z,0.70
2022-09-01T11:44:30.146Z,0.57
2022-09-01T11:46:59.432Z,0.50
2022-09-01T11:49:33.460Z,0.40
2022-09-01T11:52:00.723Z,0.60
2022-09-01T11:54:28.449Z,0.60
2022-09-01T11:56:55.231Z,0.50
2022-09-01T11:59:31.877Z,0.43
2022-09-01T12:01:58.484Z,0.63
2022-09-01T12:04:28.576Z,0.70
2022-09-01T12:06:56.454Z,0.90
2022-09-01T12:09:30.971Z,0.68
2022-09-01T12:11:57.429Z,0.65
2022-09-01T12:14:23.943Z,0.40
2022-09-01T12:17:01.991Z,0.60
2022-09-01T12:19:30.521Z,0.43
2022-09-01T12:21:59.044Z,0.93
2022-09-01T12:24:26.074Z,0.63
2022-09-01T12:27:02.951Z,0.60
2022-09-01T12:29:32.165Z,0.85
2022-09-01T12:31:59.506Z,0.70
2022-09-01T12:34:36.894Z,0.63
2022-09-01T12:37:05.815Z,0.50
2022-09-01T12:39:37.146Z,0.50
2022-09-01T12:42:12.664Z,0.63
2022-09-01T12:44:39.555Z,0.63
2022-09-01T12:47:10.575Z,0.60
2022-09-01T12:52:26.080Z,0.73
2022-09-01T12:54:54.962Z,0.50
2022-09-01T12:57:27.707Z,1.00
2022-09-01T13:00:12.571Z,0.50
2022-09-01T13:02:40.246Z,0.50
2022-09-01T13:05:22.733Z,0.70
2022-09-01T13:08:02.875Z,0.50
2022-09-01T13:10:49.153Z,0.60
2022-09-01T13:13:16.888Z,0.43
2022-09-01T13:16:12.908Z,0.50
2022-09-01T13:21:27.657Z,0.50
2022-09-01T13:23:54.659Z,0.60
2022-09-01T13:26:21.088Z,0.60
2022-09-01T13:28:48.045Z,0.52
2022-09-01T13:31:30.421Z,0.60
2022-09-01T13:34:23.053Z,0.45
2022-09-01T13:36:47.212Z,0.50
2022-09-01T13:39:15.642Z,0.60
2022-09-01T13:41:42.705Z,0.45
2022-09-01T13:44:10.450Z,0.47
2022-09-01T13:46:58.998Z,0.50
2022-09-01T13:52:10.883Z,0.50
2022-09-01T13:54:37.311Z,0.40
2022-09-01T13:57:03.871Z,0.50
2022-09-01T13:59:32.982Z,0.65
2022-09-01T14:01:59.651Z,0.50
2022-09-01T14:04:26.109Z,0.52
2022-09-01T14:06:52.516Z,0.57
2022-09-01T14:09:19.305Z,0.50
2022-09-01T14:11:45.775Z,0.50
2022-09-01T14:14:12.226Z,0.57
2022-09-01T14:16:38.709Z,0.57
2022-09-01T14:19:05.179Z,0.60
2022-09-01T14:21:31.627Z,0.70
2022-09-01T14:23:58.181Z,0.73
2022-09-01T14:26:27.247Z,0.50
2022-09-01T14:28:55.088Z,0.47
2022-09-01T14:31:21.988Z,0.45
2022-09-01T14:33:49.174Z,0.47
2022-09-01T14:36:23.639Z,0.50
2022-09-01T14:38:50.554Z,0.75
2022-09-01T14:41:20.943Z,0.57
2022-09-01T14:43:47.536Z,0.40
2022-09-01T14:46:14.040Z,0.52
2022-09-01T14:48:40.632Z,0.70
2022-09-01T14:51:08.152Z,0.73
2022-09-01T14:56:18.371Z,0.40
2022-09-01T14:58:47.167Z,0.38
2022-09-01T15:01:33.223Z,0.50
2022-09-01T15:04:04.099Z,0.63
2022-09-01T15:06:30.982Z,0.50
2022-09-01T15:08:57.381Z,0.60
2022-09-01T15:11:25.170Z,0.50
2022-09-01T15:13:52.184Z,0.47
2022-09-01T15:16:20.773Z,0.50
2022-09-01T15:18:47.351Z,0.50
2022-09-01T15:21:28.635Z,0.70
2022-09-01T15:23:58.263Z,0.50
2022-09-01T15:26:25.906Z,0.45
2022-09-01T15:28:52.426Z,0.40
2022-09-01T15:31:22.611Z,0.50
2022-09-01T15:34:00.617Z,0.50
2022-09-01T15:36:28.607Z,0.50
2022-09-01T15:38:55.861Z,0.85
2022-09-01T15:41:26.780Z,0.35
2022-09-01T15:46:20.135Z,0.75
2022-09-01T15:48:47.138Z,0.40
2022-09-01T15:51:22.522Z,0.65
2022-09-01T15:53:53.763Z,0.40
2022-09-01T15:56:20.323Z,0.63
2022-09-01T15:59:00.694Z,0.50
2022-09-01T16:01:29.358Z,0.80
2022-09-01T16:03:56.146Z,0.57
2022-09-01T16:06:23.365Z,0.85
2022-09-01T16:08:50.702Z,0.80
2022-09-01T16:11:17.162Z,0.65
2022-09-01T16:13:43.753Z,0.60
2022-09-01T16:16:30.848Z,0.60
2022-09-01T16:19:06.431Z,0.40
2022-09-01T16:21:49.443Z,0.50
2022-09-01T16:24:16.282Z,0.50
2022-09-01T16:26:45.839Z,0.43
2022-09-01T16:29:20.387Z,0.77
2022-09-01T16:31:49.395Z,0.50
2022-09-01T16:34:18.786Z,0.50
2022-09-01T16:36:50.970Z,0.40
2022-09-01T16:39:37.912Z,0.60
2022-09-01T16:42:07.384Z,0.60
2022-09-01T16:45:01.530Z,0.70
2022-09-01T16:47:47.845Z,1.00
2022-09-01T16:50:19.586Z,0.65
2022-09-01T16:53:05.701Z,0.60
2022-09-01T16:55:36.039Z,1.52
2022-09-01T16:58:23.677Z,0.73
2022-09-01T17:01:05.924Z,0.55
2022-09-01T17:03:54.253Z,0.40
2022-09-01T17:06:32.090Z,0.63
2022-09-01T17:09:19.128Z,0.80
2022-09-01T17:11:52.995Z,0.60
2022-09-01T17:14:27.805Z,0.43
2022-09-01T17:17:05.413Z,0.52
2022-09-01T17:19:34.587Z,0.90
2022-09-01T17:22:06.345Z,0.70
2022-09-01T17:24:42.812Z,0.60
2022-09-01T17:27:28.051Z,0.90
2022-09-01T17:29:58.413Z,0.77
2022-09-01T17:32:39.187Z,0.70
2022-09-01T17:35:25.374Z,0.63
2022-09-01T17:38:03.733Z,0.65
2022-09-01T17:40:53.252Z,0.55
2022-09-01T17:43:31.660Z,0.88
2022-09-01T17:46:07.074Z,0.60
2022-09-01T17:49:03.146Z,1.08
2022-09-01T17:51:37.889Z,0.77
2022-09-01T17:54:12.428Z,0.98
2022-09-01T17:56:55.177Z,0.70
2022-09-01T17:59:22.535Z,0.80
2022-09-01T18:02:08.684Z,0.70
2022-09-01T18:04:47.056Z,0.80
2022-09-01T18:07:25.495Z,0.80
2022-09-01T18:09:53.580Z,0.70
2022-09-01T18:12:22.333Z,0.70
2022-09-01T18:14:59.680Z,0.90
2022-09-01T18:17:26.465Z,0.77
2022-09-01T18:19:58.060Z,0.90
2022-09-01T18:22:25.842Z,1.02
2022-09-01T18:24:58.379Z,0.90
2022-09-01T18:27:28.829Z,0.95
2022-09-01T18:29:58.129Z,0.90
2022-09-01T18:32:32.297Z,0.80
2022-09-01T18:35:03.336Z,0.80
2022-09-01T18:40:01.196Z,1.10
2022-09-01T18:42:40.616Z,0.88
2022-09-01T18:45:19.967Z,1.00
2022-09-01T18:48:09.173Z,1.00
2022-09-01T18:50:45.678Z,0.98
2022-09-01T18:53:20.943Z,0.80
2022-09-01T18:56:02.955Z,1.00
2022-09-01T18:58:36.798Z,0.80
2022-09-01T19:01:05.931Z,1.00
2022-09-01T19:03:51.036Z,1.10
2022-09-01T19:06:23.748Z,1.02
2022-09-01T19:08:53.226Z,1.10
2022-09-01T19:11:22.669Z,1.00
2022-09-01T19:14:01.655Z,1.63
2022-09-01T19:16:28.064Z,1.30
2022-09-01T19:19:07.521Z,1.30
2022-09-01T19:21:34.143Z,1.30
2022-09-01T19:24:17.248Z,1.50
2022-09-01T19:26:46.161Z,0.95
2022-09-01T19:29:16.607Z,1.10
2022-09-01T19:31:44.702Z,1.35
2022-09-01T19:34:13.482Z,1.10
2022-09-01T19:36:39.861Z,1.23
2022-09-01T19:39:07.591Z,1.10
2022-09-01T19:41:35.684Z,1.20
2022-09-01T19:44:14.732Z,1.10
2022-09-01T19:46:47.128Z,1.60
2022-09-01T19:49:18.333Z,1.30
2022-09-01T19:51:51.090Z,1.95
2022-09-01T19:54:28.551Z,1.20
2022-09-01T19:57:03.409Z,1.50
2022-09-01T19:59:49.932Z,1.23
2022-09-01T20:02:34.846Z,1.75
2022-09-01T20:05:20.020Z,1.30
2022-09-01T20:07:52.511Z,1.52
2022-09-01T20:10:28.073Z,1.17
2022-09-01T20:13:03.930Z,1.02
2022-09-01T20:15:30.433Z,1.27
2022-09-01T20:18:04.073Z,1.55
2022-09-01T20:20:34.439Z,1.10
2022-09-01T20:23:03.668Z,1.55
2022-09-01T20:25:32.955Z,1.23
2022-09-01T20:28:18.358Z,1.17
2022-09-01T20:30:51.015Z,1.08
2022-09-01T20:33:24.779Z,1.23
2022-09-01T20:36:03.986Z,1.25
2022-09-01T20:39:11.841Z,1.20
2022-09-01T20:41:49.181Z,1.58
2022-09-01T20:44:26.524Z,1.50
2022-09-01T20:46:52.964Z,1.60
2022-09-01T20:49:19.552Z,1.50
2022-09-01T20:51:55.564Z,1.30
2022-09-01T20:54:33.317Z,1.55
2022-09-01T20:57:10.970Z,1.33
2022-09-01T20:59:37.367Z,1.23
2022-09-01T21:02:11.047Z,1.27
2022-09-01T21:04:40.554Z,1.95
2022-09-01T21:07:14.732Z,1.52
2022-09-01T21:09:49.823Z,1.40
2022-09-01T21:12:25.574Z,1.48
2022-09-01T21:15:01.828Z,1.67
2022-09-01T21:17:58.750Z,1.63
2022-09-01T21:20:49.932Z,1.40
2022-09-01T21:23:16.712Z,1.40
2022-09-01T21:25:44.146Z,1.40
2022-09-01T21:28:13.129Z,1.88
2022-09-01T21:30:39.625Z,1.70
2022-09-01T21:33:06.310Z,1.70
2022-09-01T21:35:33.311Z,1.50
2022-09-01T21:37:59.784Z,1.40
2022-09-01T21:40:26.621Z,1.58
2022-09-01T21:42:55.958Z,1.55
2022-09-01T21:45:23.064Z,1.15
2022-09-01T21:47:49.690Z,1.40
2022-09-01T21:50:17.249Z,1.13
2022-09-01T21:52:43.986Z,1.20
2022-09-01T21:55:10.400Z,1.08
2022-09-01T21:57:36.866Z,1.40
2022-09-01T22:00:07.312Z,1.35
2022-09-01T22:02:41.155Z,1.67
2022-09-01T22:05:09.473Z,1.30
2022-09-01T22:07:40.287Z,1.38
2022-09-01T22:10:09.485Z,1.40
2022-09-01T22:12:38.285Z,1.30
2022-09-01T22:15:07.502Z,1.00
2022-09-01T22:17:35.507Z,1.13
2022-09-01T22:20:03.302Z,1.20
2022-09-01T22:22:29.810Z,1.30
2022-09-01T22:24:56.188Z,0.98
2022-09-01T22:27:22.563Z,1.20
2022-09-01T22:29:49.648Z,1.20
2022-09-01T22:32:16.011Z,1.23
2022-09-01T22:34:43.554Z,1.17
2022-09-01T22:37:10.122Z,1.25
2022-09-01T22:39:37.059Z,1.10
2022-09-01T22:42:03.838Z,1.40
2022-09-01T22:44:30.346Z,1.17
2022-09-01T22:46:57.051Z,1.63
2022-09-01T22:49:23.478Z,1.63
2022-09-01T22:51:50.377Z,1.40
2022-09-01T22:54:16.961Z,1.40
2022-09-01T22:56:43.687Z,1.20
2022-09-01T22:59:11.846Z,1.20
2022-09-01T23:01:39.339Z,1.00
2022-09-01T23:04:06.916Z,1.13
2022-09-01T23:06:34.351Z,1.17
2022-09-01T23:09:01.445Z,1.15
2022-09-01T23:11:28.443Z,1.45
2022-09-01T23:13:54.954Z,1.35
2022-09-01T23:16:22.165Z,1.13
2022-09-01T23:18:49.193Z,1.45
2022-09-01T23:21:17.428Z,1.38
2022-09-01T23:23:43.869Z,1.13
2022-09-01T23:26:11.107Z,1.13
2022-09-01T23:28:38.815Z,1.05
2022-09-01T23:31:07.500Z,1.08
2022-09-01T23:33:33.933Z,1.40
2022-09-01T23:36:00.452Z,1.13
2022-09-01T23:38:27.474Z,1.20
2022-09-01T23:40:55.317Z,0.93
2022-09-01T23:43:22.868Z,1.15
2022-09-01T23:45:50.957Z,1.23
2022-09-01T23:48:18.298Z,1.00
2022-09-01T23:50:46.314Z,1.10
2022-09-01T23:53:13.716Z,1.00
2022-09-01T23:55:47.680Z,1.10
2022-09-01T23:58:14.734Z,1.25
